logo
Search for airport 
image banner adimage banner adimage banner ad
image banner ad

LSPF - Schaffhausen

Located in Schaffhausen, Switzerland

ICAO - LSPF, IATA -

Data provided by Airmate  

General information

Coordinates: N47°41'26" E8°31'37"
Elevation is 1519 feet MSL.
Magnetic variation is 3.358° East
View others Airports in Schaffhausen

Operational data

Special qualification required
Current time UTC:
Current local time:
Weather at : LSZH - Zurich ( 26 km )
METAR: LSZH 220920Z 03008KT 360V070 9999 FEW012 BKN014 BKN018 03/00 Q1019 TEMPO BKN015
TAF: TAF AMD LSZH 220911Z 2209/2315 04009KT 9999 FEW008 BKN030 TX04/2215Z TN00/2304Z TX05/2315Z TEMPO 2209/2212 BKN012 PROB40 TEMPO 2212/2216 05013G25KT PROB40 TEMPO 2223/2303 4000 -RASN BKN012 PROB40 TEMPO 2303/2308 2000 -SN BKN006 PROB40 TEMPO 2308/2315 RA PROB30 TEMPO 2311/2315 05013G25KT
View NOTAMs / SUP AIP / TFR affecting this airport [VIEW]
Communications frequencies: [VIEW]

Runways:

RWY identifierQFULength (ft)Width (ft)SurfaceLDA (ft)
0767°177298GRASS
25247°177298GRASS

Airport contact information

Address: Schaffhausen Switzerland

Other aviation service providers

Aviation club (not for profit)

Segelfluggruppe Schaffhausen

Segelfluggruppe Schaffhausen

Satellite view of LSPF